Time;durP1;ratioP1;P1;durP2;ratioP2;P2;SDS_P1;SDS_P2;PMS_P1;PMS_P2;Temp;Humidity;BMP_temperature;BMP_pressure;BME280_temperature;BME280_humidity;BME280_pressure;Samples;Min_cycle;Max_cycle;Signal;HPM_P1;HPM_P2
2023/02/26 00:00:12;;;;;;;1.40;1.30;;;-0.50;99.90;;;;;;5075994;28;20225;-78
2023/02/26 00:02:38;;;;;;;0.50;0.50;;;-0.50;99.90;;;;;;5074824;28;20189;-78
2023/02/26 00:05:06;;;;;;;0.50;0.50;;;-0.50;99.90;;;;;;5075429;28;20302;-77
2023/02/26 00:07:35;;;;;;;0.50;0.50;;;-0.50;99.90;;;;;;5075166;28;20485;-76
2023/02/26 00:10:02;;;;;;;0.50;0.50;;;-0.50;99.90;;;;;;5075934;28;20214;-77
2023/02/26 00:12:30;;;;;;;0.50;0.50;;;-0.60;99.90;;;;;;5076742;28;20255;-78
2023/02/26 00:14:57;;;;;;;1.35;1.25;;;-0.70;99.90;;;;;;5076411;28;20657;-77
2023/02/26 00:17:34;;;;;;;0.50;0.50;;;-0.70;99.90;;;;;;5082775;28;20416;-78
2023/02/26 00:20:02;;;;;;;0.93;0.88;;;-0.70;99.90;;;;;;5082020;28;20256;-78
2023/02/26 00:22:30;;;;;;;0.50;0.50;;;-0.80;99.90;;;;;;5080040;28;20206;-78
2023/02/26 00:24:58;;;;;;;9.57;1.88;;;-0.80;99.90;;;;;;5077667;28;20250;-78
2023/02/26 00:27:25;;;;;;;0.50;0.50;;;-0.70;99.90;;;;;;5080349;28;20289;-78
2023/02/26 00:29:52;;;;;;;0.50;0.50;;;-0.60;99.90;;;;;;5079016;28;20311;-78
2023/02/26 00:32:20;;;;;;;0.50;0.40;;;-0.60;99.90;;;;;;5078141;28;20216;-78
2023/02/26 00:34:48;;;;;;;0.50;0.50;;;-0.50;99.90;;;;;;5078312;28;20277;-78
2023/02/26 00:37:30;;;;;;;0.50;0.50;;;-0.40;99.90;;;;;;5080193;28;20464;-79
2023/02/26 00:40:12;;;;;;;0.60;0.60;;;-0.50;99.90;;;;;;5080625;28;20382;-77
2023/02/26 00:42:40;;;;;;;0.50;0.40;;;-0.30;99.90;;;;;;5073247;28;20217;-77
2023/02/26 00:45:08;;;;;;;0.50;0.50;;;-0.30;99.90;;;;;;5077066;28;20186;-77
2023/02/26 00:47:42;;;;;;;0.50;0.40;;;-0.20;99.90;;;;;;5079274;28;20221;-77
2023/02/26 00:50:16;;;;;;;0.50;0.50;;;-0.20;99.90;;;;;;5077740;28;20577;-79
2023/02/26 00:52:55;;;;;;;0.50;0.50;;;-0.20;99.90;;;;;;5079683;28;20197;-78
2023/02/26 00:55:23;;;;;;;0.50;0.50;;;-0.10;99.90;;;;;;5077668;28;20220;-78
2023/02/26 00:57:50;;;;;;;1.60;1.50;;;-0.10;99.90;;;;;;5078015;28;20273;-78
2023/02/26 01:00:18;;;;;;;0.50;0.40;;;0.10;99.90;;;;;;5078075;28;20676;-78
2023/02/26 01:02:46;;;;;;;0.50;0.50;;;0.20;99.90;;;;;;5080543;28;20233;-77
2023/02/26 01:05:14;;;;;;;0.50;0.40;;;0.20;99.90;;;;;;5080628;28;20258;-78
2023/02/26 01:07:47;;;;;;;0.50;0.50;;;0.20;99.90;;;;;;5080151;28;20790;-79
2023/02/26 01:10:14;;;;;;;0.50;0.50;;;0.20;99.90;;;;;;5079821;28;20210;-77
2023/02/26 01:12:43;;;;;;;0.50;0.50;;;0.20;99.90;;;;;;5079293;28;20221;-79
2023/02/26 01:15:11;;;;;;;0.50;0.50;;;0.20;99.90;;;;;;5079375;28;20222;-76
2023/02/26 01:17:44;;;;;;;0.50;0.50;;;0.20;99.90;;;;;;5079160;28;20565;-77
2023/02/26 01:20:17;;;;;;;0.50;0.50;;;0.20;99.90;;;;;;5078369;28;20222;-77
2023/02/26 01:22:50;;;;;;;0.50;0.50;;;0.30;99.90;;;;;;5078891;28;20190;-77
2023/02/26 01:25:20;;;;;;;0.60;0.55;;;0.20;99.90;;;;;;5078683;28;20246;-77
2023/02/26 01:27:48;;;;;;;0.50;0.40;;;0.30;99.90;;;;;;5082244;28;20269;-77
2023/02/26 01:30:17;;;;;;;0.50;0.50;;;0.20;99.90;;;;;;5081546;28;20312;-78
2023/02/26 01:32:48;;;;;;;0.50;0.45;;;0.20;99.90;;;;;;5079626;28;20278;-78
2023/02/26 01:35:26;;;;;;;0.50;0.50;;;0.20;99.90;;;;;;5079484;28;20684;-77
2023/02/26 01:38:00;;;;;;;0.50;0.50;;;0.10;99.90;;;;;;5079624;28;20197;-77
2023/02/26 01:40:44;;;;;;;0.50;0.50;;;0.10;99.90;;;;;;5079711;28;20285;-78
2023/02/26 01:43:19;;;;;;;0.50;0.50;;;0.00;99.90;;;;;;5079741;28;20276;-77
2023/02/26 01:45:57;;;;;;;0.50;0.40;;;0.00;99.90;;;;;;5080385;28;20273;-77
2023/02/26 01:48:36;;;;;;;0.50;0.40;;;0.00;99.90;;;;;;5080917;28;20630;-77
2023/02/26 01:51:03;;;;;;;0.50;0.50;;;-0.10;99.90;;;;;;5081719;28;20286;-77
2023/02/26 01:53:30;;;;;;;0.50;0.43;;;-0.10;99.90;;;;;;5083116;28;20225;-77
2023/02/26 01:56:00;;;;;;;0.50;0.50;;;-0.20;99.90;;;;;;5083398;28;20216;-78
2023/02/26 01:58:32;;;;;;;0.50;0.50;;;-0.20;99.90;;;;;;5084111;28;20222;-77
2023/02/26 02:01:00;;;;;;;0.50;0.47;;;-0.20;99.90;;;;;;5084457;28;20221;-78
2023/02/26 02:03:30;;;;;;;0.50;0.50;;;-0.10;99.90;;;;;;5084497;28;20220;-78
2023/02/26 02:06:02;;;;;;;0.50;0.50;;;-0.30;99.90;;;;;;5084011;28;20232;-77
2023/02/26 02:08:32;;;;;;;0.50;0.50;;;-0.20;99.90;;;;;;5083714;28;20301;-76
2023/02/26 02:11:02;;;;;;;0.50;0.50;;;-0.30;99.90;;;;;;5084209;28;20197;-76
2023/02/26 02:13:41;;;;;;;0.50;0.50;;;-0.30;99.90;;;;;;5084033;28;20275;-77
2023/02/26 02:16:17;;;;;;;0.50;0.40;;;-0.50;99.90;;;;;;5083492;28;20200;-77
2023/02/26 02:18:53;;;;;;;0.50;0.40;;;-0.60;99.90;;;;;;5074187;28;20695;-78
2023/02/26 02:21:35;;;;;;;0.50;0.50;;;-0.60;99.90;;;;;;5082431;28;20193;-77
2023/02/26 02:24:09;;;;;;;0.50;0.50;;;-0.70;99.90;;;;;;5081924;28;20201;-78
2023/02/26 02:26:53;;;;;;;0.50;0.50;;;-0.70;99.90;;;;;;5081734;28;20226;-77
2023/02/26 02:29:50;;;;;;;0.50;0.40;;;-0.70;99.90;;;;;;5083623;28;20253;-78
2023/02/26 02:32:23;;;;;;;0.50;0.50;;;-0.70;99.90;;;;;;5080526;28;20194;-78
2023/02/26 02:34:54;;;;;;;0.60;0.60;;;-0.70;99.90;;;;;;5084651;28;20203;-77
2023/02/26 02:37:25;;;;;;;0.50;0.50;;;-0.70;99.90;;;;;;5083084;28;20198;-78
2023/02/26 02:39:56;;;;;;;0.50;0.50;;;-0.80;99.90;;;;;;5081213;28;20214;-77
2023/02/26 02:42:30;;;;;;;0.50;0.50;;;-0.80;99.90;;;;;;5084816;28;20222;-77
2023/02/26 02:45:01;;;;;;;0.50;0.50;;;-0.80;99.90;;;;;;5084837;28;20197;-77
2023/02/26 02:47:34;;;;;;;0.50;0.50;;;-0.80;99.90;;;;;;5084769;28;20728;-77
2023/02/26 02:50:07;;;;;;;0.50;0.50;;;-0.80;99.90;;;;;;5085027;28;20244;-77
2023/02/26 02:52:39;;;;;;;0.50;0.50;;;-0.90;99.90;;;;;;5084755;28;20223;-77
2023/02/26 02:55:10;;;;;;;0.50;0.50;;;-0.90;99.90;;;;;;5085927;28;20222;-77
2023/02/26 02:57:41;;;;;;;0.50;0.50;;;-1.00;99.90;;;;;;5085120;28;20190;-78
2023/02/26 03:00:12;;;;;;;0.50;0.50;;;-0.90;99.90;;;;;;5085012;28;20245;-78
2023/02/26 03:02:49;;;;;;;0.50;0.50;;;-0.90;99.90;;;;;;5085114;28;20201;-77
2023/02/26 03:05:16;;;;;;;0.50;0.50;;;-0.90;99.90;;;;;;5085690;28;20227;-78
2023/02/26 03:07:47;;;;;;;0.50;0.50;;;-1.00;99.90;;;;;;5085909;28;20229;-77
2023/02/26 03:10:15;;;;;;;0.50;0.50;;;-1.00;99.90;;;;;;5086031;28;20218;-78
2023/02/26 03:12:42;;;;;;;0.50;0.50;;;-1.00;99.90;;;;;;5085710;28;20216;-78
2023/02/26 03:15:10;;;;;;;0.50;0.50;;;-1.10;99.90;;;;;;5084572;28;20214;-77
2023/02/26 03:17:47;;;;;;;0.50;0.50;;;-1.20;99.90;;;;;;5082763;28;20186;-77
2023/02/26 03:20:24;;;;;;;0.50;0.50;;;-1.20;99.90;;;;;;5082206;28;20217;-78
2023/02/26 03:23:00;;;;;;;0.50;0.50;;;-1.20;99.90;;;;;;5075207;28;20209;-78
2023/02/26 03:25:31;;;;;;;0.50;0.50;;;-1.30;99.90;;;;;;5081708;28;20227;-77
2023/02/26 03:28:08;;;;;;;0.50;0.50;;;-1.30;99.90;;;;;;5082815;28;20224;-77
2023/02/26 03:30:39;;;;;;;0.50;0.50;;;-1.40;99.90;;;;;;5122127;22;20224;-78
2023/02/26 03:33:14;;;;;;;0.50;0.50;;;-1.50;99.90;;;;;;5063079;28;20202;-78
2023/02/26 03:35:49;;;;;;;0.50;0.50;;;-1.50;99.90;;;;;;5074101;28;20213;-78
2023/02/26 03:38:24;;;;;;;0.50;0.50;;;-1.60;99.90;;;;;;5073986;28;20201;-76
2023/02/26 03:40:56;;;;;;;0.50;0.50;;;-1.50;99.90;;;;;;5073896;28;20209;-79
2023/02/26 03:43:30;;;;;;;0.50;0.47;;;-1.50;99.90;;;;;;5073478;28;20285;-78
2023/02/26 03:46:02;;;;;;;0.50;0.50;;;-1.50;99.90;;;;;;5073504;28;20202;-78
2023/02/26 03:48:34;;;;;;;0.50;0.50;;;-1.50;99.90;;;;;;5073976;28;20205;-77
2023/02/26 03:51:07;;;;;;;0.50;0.50;;;-1.50;99.90;;;;;;5074026;28;20218;-79
2023/02/26 03:53:41;;;;;;;0.50;0.40;;;-1.60;99.90;;;;;;5073427;28;20202;-79
2023/02/26 03:56:15;;;;;;;0.50;0.50;;;-1.60;99.90;;;;;;5073356;28;20233;-78
2023/02/26 03:58:42;;;;;;;0.52;0.52;;;-1.60;99.90;;;;;;5073496;28;20627;-78
2023/02/26 04:01:18;;;;;;;0.50;0.50;;;-1.60;99.90;;;;;;5073508;28;20313;-78
2023/02/26 04:03:52;;;;;;;0.50;0.50;;;-1.70;99.90;;;;;;5066036;28;20200;-78
2023/02/26 04:06:19;;;;;;;0.50;0.40;;;-1.70;99.90;;;;;;5073080;28;20208;-77
2023/02/26 04:08:47;;;;;;;0.50;0.50;;;-1.80;99.90;;;;;;5073031;28;20288;-77
2023/02/26 04:11:17;;;;;;;0.50;0.50;;;-1.80;99.90;;;;;;5073309;28;20274;-78
2023/02/26 04:13:44;;;;;;;0.50;0.40;;;-1.70;99.90;;;;;;5064826;28;20190;-77
2023/02/26 04:16:11;;;;;;;0.50;0.50;;;-1.80;99.90;;;;;;5072858;28;20241;-77
2023/02/26 04:18:38;;;;;;;0.50;0.50;;;-1.80;99.90;;;;;;5073145;28;20691;-78
2023/02/26 04:21:07;;;;;;;0.50;0.40;;;-1.80;99.90;;;;;;5072840;28;20244;-77
2023/02/26 04:23:34;;;;;;;3.35;2.35;;;-1.80;99.90;;;;;;5073353;28;20765;-78
2023/02/26 04:26:00;;;;;;;0.50;0.50;;;-1.80;99.90;;;;;;5073433;28;20194;-78
2023/02/26 04:28:28;;;;;;;0.50;0.50;;;-1.80;99.90;;;;;;5072862;28;20302;-78
2023/02/26 04:30:55;;;;;;;0.50;0.50;;;-1.80;99.90;;;;;;5072823;28;20218;-78
2023/02/26 04:33:23;;;;;;;0.50;0.50;;;-1.80;99.90;;;;;;5073177;28;20213;-78
2023/02/26 04:35:49;;;;;;;0.50;0.50;;;-1.80;99.90;;;;;;5072722;28;20772;-78
2023/02/26 04:38:18;;;;;;;0.60;0.60;;;-1.90;99.90;;;;;;5073380;28;20289;-78
2023/02/26 04:40:45;;;;;;;0.50;0.50;;;-1.80;99.90;;;;;;5065071;28;20234;-78
2023/02/26 04:43:12;;;;;;;0.50;0.50;;;-1.80;99.90;;;;;;5073212;28;20212;-78
2023/02/26 04:45:39;;;;;;;0.50;0.50;;;-1.80;99.90;;;;;;5072150;28;20205;-77
2023/02/26 04:48:06;;;;;;;0.50;0.50;;;-1.80;99.90;;;;;;5073200;28;20206;-78
2023/02/26 04:50:33;;;;;;;0.50;0.40;;;-1.80;99.90;;;;;;5073448;28;20217;-77
2023/02/26 04:52:59;;;;;;;0.50;0.50;;;-1.80;99.90;;;;;;5073820;28;20673;-77
2023/02/26 04:55:28;;;;;;;0.50;0.50;;;-1.80;99.90;;;;;;5073303;28;20249;-78
2023/02/26 04:57:55;;;;;;;0.50;0.50;;;-1.80;99.90;;;;;;5073877;28;20588;-77
2023/02/26 05:00:22;;;;;;;0.50;0.50;;;-1.80;99.90;;;;;;5072855;28;20222;-77
2023/02/26 05:02:48;;;;;;;0.50;0.50;;;-1.90;99.90;;;;;;5077232;28;20277;-78
2023/02/26 05:05:15;;;;;;;0.50;0.50;;;-1.90;99.90;;;;;;5077564;28;20200;-78
2023/02/26 05:07:42;;;;;;;0.50;0.50;;;-1.80;99.90;;;;;;5076861;28;20267;-78
2023/02/26 05:10:10;;;;;;;0.50;0.50;;;-1.80;99.90;;;;;;5077342;28;20228;-80
2023/02/26 05:12:39;;;;;;;0.50;0.50;;;-1.90;99.90;;;;;;5076837;28;20225;-78
2023/02/26 05:15:06;;;;;;;0.50;0.50;;;-1.90;99.90;;;;;;5076011;28;20603;-78
2023/02/26 05:17:33;;;;;;;0.50;0.50;;;-1.90;99.90;;;;;;5076263;28;20229;-78
2023/02/26 05:20:00;;;;;;;0.50;0.50;;;-1.90;99.90;;;;;;5076020;28;20309;-78
2023/02/26 05:22:28;;;;;;;0.50;0.50;;;-2.00;99.90;;;;;;5076027;28;20209;-79
2023/02/26 05:24:54;;;;;;;0.50;0.45;;;-1.90;99.90;;;;;;5076441;28;20206;-77
2023/02/26 05:27:21;;;;;;;0.50;0.50;;;-1.90;99.90;;;;;;5075659;28;20203;-78
2023/02/26 05:29:49;;;;;;;0.50;0.50;;;-1.80;99.90;;;;;;5075884;28;20221;-78
2023/02/26 05:32:16;;;;;;;0.50;0.50;;;-1.80;99.90;;;;;;5075860;28;20649;-78
2023/02/26 05:34:43;;;;;;;0.50;0.50;;;-1.90;99.90;;;;;;5075516;28;20730;-78
2023/02/26 05:37:10;;;;;;;0.50;0.50;;;-1.80;99.90;;;;;;5075682;28;20207;-77
2023/02/26 05:39:37;;;;;;;0.50;0.50;;;-1.90;99.90;;;;;;5076027;28;20220;-78
2023/02/26 05:42:04;;;;;;;0.80;0.80;;;-1.90;99.90;;;;;;5076749;28;20718;-78
2023/02/26 05:44:30;;;;;;;0.77;0.77;;;-1.80;99.90;;;;;;5076182;28;20693;-77
2023/02/26 05:46:58;;;;;;;0.70;0.70;;;-1.90;99.90;;;;;;5076922;28;20194;-76
2023/02/26 05:49:25;;;;;;;0.50;0.50;;;-1.80;99.90;;;;;;5077826;28;20226;-79
2023/02/26 05:51:53;;;;;;;0.50;0.50;;;-1.80;99.90;;;;;;5077664;28;20205;-79
2023/02/26 05:54:19;;;;;;;0.50;0.40;;;-1.70;99.90;;;;;;5077546;28;20209;-78
2023/02/26 05:56:46;;;;;;;0.85;0.85;;;-1.80;99.90;;;;;;5076107;28;20286;-78
2023/02/26 05:59:13;;;;;;;0.50;0.50;;;-1.80;99.90;;;;;;5076522;28;20224;-77
2023/02/26 06:01:41;;;;;;;0.50;0.50;;;-1.80;99.90;;;;;;5075945;28;20208;-79
2023/02/26 06:04:09;;;;;;;1.30;1.20;;;-1.80;99.90;;;;;;5076505;28;20201;-78
2023/02/26 06:06:36;;;;;;;0.50;0.50;;;-1.70;99.90;;;;;;5075937;28;20194;-78
2023/02/26 06:09:03;;;;;;;0.60;0.60;;;-1.70;99.90;;;;;;5076460;28;20296;-78
2023/02/26 06:11:30;;;;;;;0.50;0.50;;;-1.70;99.90;;;;;;5078408;28;20257;-78
2023/02/26 06:13:57;;;;;;;1.17;1.08;;;-1.70;99.90;;;;;;5078932;28;20212;-78
2023/02/26 06:16:24;;;;;;;1.60;1.50;;;-1.70;99.90;;;;;;5079342;28;20689;-79
2023/02/26 06:18:51;;;;;;;0.70;0.68;;;-1.70;99.90;;;;;;5070524;28;20194;-78
2023/02/26 06:21:19;;;;;;;0.80;0.80;;;-1.70;99.90;;;;;;5077615;28;20198;-78
2023/02/26 06:23:46;;;;;;;0.90;0.75;;;-1.70;99.90;;;;;;5079534;28;20227;-79
2023/02/26 06:26:13;;;;;;;0.85;0.85;;;-1.70;99.90;;;;;;5078169;28;20660;-78
2023/02/26 06:28:40;;;;;;;1.88;1.58;;;-1.70;99.90;;;;;;5074943;28;20198;-78
2023/02/26 06:31:07;;;;;;;5.30;2.30;;;-1.70;99.90;;;;;;5075527;28;20813;-77
2023/02/26 06:33:34;;;;;;;1.33;1.23;;;-1.70;99.90;;;;;;5074493;28;20205;-78
2023/02/26 06:36:01;;;;;;;0.80;0.80;;;-1.60;99.90;;;;;;5076878;28;20249;-78
2023/02/26 06:38:29;;;;;;;8.15;5.85;;;-1.60;99.90;;;;;;5076188;28;20198;-79
2023/02/26 06:40:56;;;;;;;0.93;0.93;;;-1.60;99.90;;;;;;5077123;28;20220;-79
2023/02/26 06:43:23;;;;;;;1.17;1.17;;;-1.60;99.90;;;;;;5077071;28;20212;-79
2023/02/26 06:45:50;;;;;;;0.93;0.93;;;-1.60;99.90;;;;;;5075690;28;20251;-79
2023/02/26 06:48:17;;;;;;;7.32;4.60;;;-1.60;99.90;;;;;;5077246;28;20205;-79
2023/02/26 06:50:44;;;;;;;1.77;1.40;;;-1.60;99.90;;;;;;5076930;28;20225;-77
2023/02/26 06:53:11;;;;;;;0.60;0.60;;;-1.50;99.90;;;;;;5079238;28;20285;-78
2023/02/26 06:55:43;;;;;;;3.10;2.90;;;-1.50;99.90;;;;;;5077920;28;20655;-79
2023/02/26 06:58:10;;;;;;;0.50;0.50;;;-1.40;99.90;;;;;;5077838;28;20198;-79
2023/02/26 07:00:37;;;;;;;0.50;0.50;;;-1.40;99.90;;;;;;5074660;28;20217;-78
2023/02/26 07:03:05;;;;;;;1.58;1.58;;;-1.40;99.90;;;;;;5074938;28;20660;-78
2023/02/26 07:05:31;;;;;;;0.50;0.50;;;-1.30;99.90;;;;;;5074407;28;20293;-78
2023/02/26 07:07:58;;;;;;;0.50;0.50;;;-1.20;99.90;;;;;;5074482;28;20198;-77
2023/02/26 07:10:25;;;;;;;0.50;0.50;;;-1.10;99.90;;;;;;5074309;28;20298;-77
2023/02/26 07:12:53;;;;;;;2.67;1.80;;;-1.00;99.90;;;;;;5073468;28;20665;-77
2023/02/26 07:15:20;;;;;;;1.73;1.60;;;-0.90;99.90;;;;;;5074105;28;20228;-77
2023/02/26 07:17:47;;;;;;;0.50;0.50;;;-0.80;99.90;;;;;;5073947;28;20305;-78
2023/02/26 07:20:14;;;;;;;1.20;1.10;;;-0.80;99.90;;;;;;5074950;28;20222;-77
2023/02/26 07:22:41;;;;;;;1.02;1.02;;;-0.70;99.90;;;;;;5074286;28;20222;-78
2023/02/26 07:25:08;;;;;;;0.88;0.88;;;-0.60;99.90;;;;;;5073011;28;20204;-77
2023/02/26 07:27:35;;;;;;;2.50;0.70;;;-0.50;99.90;;;;;;5072922;28;20194;-78
2023/02/26 07:30:06;;;;;;;0.50;0.50;;;-0.40;99.90;;;;;;5073975;28;20230;-77
2023/02/26 07:32:33;;;;;;;0.95;0.95;;;-0.30;99.90;;;;;;5073926;28;20221;-78
2023/02/26 07:35:00;;;;;;;0.50;0.50;;;-0.20;99.90;;;;;;5074423;28;20236;-77
2023/02/26 07:37:27;;;;;;;0.60;0.60;;;-0.10;99.90;;;;;;5074044;28;20225;-77
2023/02/26 07:39:55;;;;;;;0.70;0.50;;;0.30;99.90;;;;;;5073368;28;20217;-77
2023/02/26 07:42:21;;;;;;;0.60;0.60;;;1.00;99.90;;;;;;5073849;28;20198;-77
2023/02/26 07:44:48;;;;;;;0.60;0.60;;;1.50;99.90;;;;;;5072796;28;20205;-78
2023/02/26 07:47:16;;;;;;;1.35;1.25;;;2.00;99.90;;;;;;5072881;28;20197;-77
2023/02/26 07:49:43;;;;;;;0.50;0.50;;;2.40;99.90;;;;;;5072846;28;20681;-77
2023/02/26 07:52:10;;;;;;;1.00;1.00;;;3.10;99.90;;;;;;5074528;28;20258;-78
2023/02/26 07:54:37;;;;;;;0.70;0.70;;;3.60;99.90;;;;;;5073348;28;20400;-78
2023/02/26 07:57:05;;;;;;;0.70;0.70;;;3.50;99.90;;;;;;5073020;28;20217;-77
2023/02/26 07:59:31;;;;;;;2.15;2.08;;;4.10;99.90;;;;;;5073280;28;20314;-77
2023/02/26 08:01:58;;;;;;;0.50;0.50;;;4.50;99.90;;;;;;5065079;28;20288;-77
2023/02/26 08:04:27;;;;;;;0.60;0.60;;;4.70;99.90;;;;;;5072831;28;20201;-78
2023/02/26 08:06:56;;;;;;;0.52;0.52;;;4.60;99.90;;;;;;5072162;28;20273;-78
2023/02/26 08:09:23;;;;;;;0.60;0.60;;;4.80;99.90;;;;;;5071371;28;20588;-77
2023/02/26 08:11:49;;;;;;;0.60;0.50;;;6.00;99.90;;;;;;5071846;28;20197;-78
2023/02/26 08:14:16;;;;;;;0.63;0.63;;;7.30;99.90;;;;;;5072247;28;20289;-78
2023/02/26 08:16:43;;;;;;;0.50;0.40;;;7.50;93.40;;;;;;5071122;28;20300;-78
2023/02/26 08:19:10;;;;;;;0.50;0.40;;;8.50;96.10;;;;;;5071809;28;20224;-78
2023/02/26 08:21:38;;;;;;;0.70;0.70;;;10.20;91.30;;;;;;5071548;28;20204;-77
2023/02/26 08:24:06;;;;;;;0.88;0.50;;;11.10;78.60;;;;;;5071966;28;20280;-77
2023/02/26 08:26:35;;;;;;;0.50;0.40;;;11.50;72.70;;;;;;5071115;28;20190;-78
2023/02/26 08:29:02;;;;;;;0.98;0.80;;;12.00;69.80;;;;;;5063862;28;20251;-78
2023/02/26 08:31:30;;;;;;;0.50;0.50;;;12.70;66.50;;;;;;5071366;28;20687;-78
2023/02/26 08:33:57;;;;;;;1.07;0.97;;;13.00;65.50;;;;;;5071326;28;20858;-77
2023/02/26 08:36:24;;;;;;;0.50;0.40;;;13.30;62.70;;;;;;5070140;28;20472;-77
2023/02/26 08:38:52;;;;;;;1.33;1.03;;;12.40;60.30;;;;;;5071132;28;20534;-78
2023/02/26 08:41:19;;;;;;;0.50;0.40;;;13.30;60.60;;;;;;5071196;28;21034;-78
2023/02/26 08:43:46;;;;;;;0.90;0.90;;;14.90;60.70;;;;;;5070870;28;20930;-78
2023/02/26 08:46:13;;;;;;;0.50;0.40;;;16.30;59.70;;;;;;5071374;28;20443;-78
2023/02/26 08:48:39;;;;;;;0.80;0.80;;;16.40;55.60;;;;;;5071180;28;20441;-78
2023/02/26 08:51:06;;;;;;;9.33;3.43;;;16.80;54.00;;;;;;5071447;28;20575;-79
2023/02/26 08:53:33;;;;;;;3.40;1.70;;;17.70;52.60;;;;;;5072463;28;20535;-78
2023/02/26 08:56:01;;;;;;;0.77;0.40;;;17.90;50.70;;;;;;5071769;28;20603;-78
2023/02/26 08:58:28;;;;;;;0.50;0.40;;;17.10;49.70;;;;;;5071476;28;20447;-78
2023/02/26 09:00:55;;;;;;;0.50;0.40;;;17.70;51.30;;;;;;5072798;28;20532;-79
2023/02/26 09:03:22;;;;;;;0.60;0.50;;;19.10;50.10;;;;;;5074715;28;20472;-78
2023/02/26 09:05:50;;;;;;;1.43;1.33;;;19.70;49.30;;;;;;5074224;28;20498;-77
2023/02/26 09:08:19;;;;;;;0.50;0.40;;;18.30;47.70;;;;;;5074311;28;20490;-77
2023/02/26 09:10:46;;;;;;;0.50;0.40;;;17.60;46.70;;;;;;5074233;28;20514;-76
2023/02/26 09:13:14;;;;;;;0.60;0.40;;;18.00;48.70;;;;;;5075419;28;20443;-79
2023/02/26 09:15:42;;;;;;;0.50;0.30;;;18.60;47.40;;;;;;5074719;28;20969;-78
2023/02/26 09:18:14;;;;;;;0.50;0.40;;;19.10;48.80;;;;;;5076160;28;20471;-76
2023/02/26 09:20:41;;;;;;;0.53;0.53;;;19.70;47.10;;;;;;5072497;28;20529;-77
2023/02/26 09:23:08;;;;;;;0.50;0.40;;;18.80;45.50;;;;;;5073892;28;20444;-76
2023/02/26 09:25:35;;;;;;;0.50;0.50;;;18.00;44.70;;;;;;5073353;28;20447;-77
2023/02/26 09:28:01;;;;;;;0.50;0.40;;;17.10;46.00;;;;;;5063106;28;20436;-75
2023/02/26 09:30:30;;;;;;;0.50;0.40;;;17.40;49.00;;;;;;5139135;22;20984;-78
2023/02/26 09:32:57;;;;;;;0.50;0.40;;;18.30;46.60;;;;;;5055081;28;20481;-79
2023/02/26 09:35:23;;;;;;;0.60;0.60;;;17.90;45.70;;;;;;5058264;28;20863;-79
2023/02/26 09:37:51;;;;;;;0.50;0.50;;;17.60;45.80;;;;;;5051915;28;20505;-78
2023/02/26 09:40:26;;;;;;;0.93;0.67;;;15.40;45.40;;;;;;5066474;28;20463;-81
2023/02/26 09:43:14;;;;;;;0.70;0.70;;;13.50;47.70;;;;;;5047558;28;20964;-78
2023/02/26 09:45:45;;;;;;;0.60;0.40;;;12.80;50.20;;;;;;5045191;28;20446;-77
2023/02/26 09:48:17;;;;;;;0.50;0.40;;;12.50;50.90;;;;;;5054334;28;20444;-80
2023/02/26 09:50:48;;;;;;;0.97;0.97;;;11.70;51.30;;;;;;5054025;28;20508;-79
2023/02/26 09:53:19;;;;;;;0.50;0.40;;;11.20;52.50;;;;;;5052462;28;20441;-79
2023/02/26 09:55:49;;;;;;;2.33;1.13;;;10.30;53.00;;;;;;5046889;28;20445;-77
2023/02/26 09:58:24;;;;;;;0.50;0.40;;;10.00;53.90;;;;;;5051724;28;20533;-79
2023/02/26 10:01:01;;;;;;;7.03;2.25;;;9.70;55.30;;;;;;5060318;28;20689;-79
2023/02/26 10:03:34;;;;;;;0.68;0.68;;;8.60;56.30;;;;;;5045785;28;20478;-78
2023/02/26 10:06:18;;;;;;;3.85;2.95;;;8.70;58.00;;;;;;5050718;28;20674;-77
2023/02/26 10:08:52;;;;;;;0.50;0.40;;;8.90;58.00;;;;;;5051412;28;20198;-78
2023/02/26 10:11:29;;;;;;;0.68;0.55;;;9.20;58.80;;;;;;5051812;28;20941;-80
2023/02/26 10:14:02;;;;;;;0.50;0.40;;;9.40;57.30;;;;;;5040786;28;20199;-79
2023/02/26 10:16:37;;;;;;;1.02;0.60;;;8.60;56.70;;;;;;5047762;28;20589;-79
2023/02/26 10:19:07;;;;;;;0.50;0.40;;;8.60;57.90;;;;;;5050306;28;20190;-79
2023/02/26 10:21:37;;;;;;;0.50;0.50;;;8.30;57.20;;;;;;5050802;28;20241;-79
2023/02/26 10:24:09;;;;;;;0.70;0.70;;;8.60;57.90;;;;;;5047367;28;20205;-80
2023/02/26 10:26:41;;;;;;;0.50;0.40;;;8.80;57.60;;;;;;5055770;28;20282;-80
2023/02/26 10:29:25;;;;;;;1.30;1.15;;;8.80;58.10;;;;;;5047639;28;20278;-80
2023/02/26 10:32:07;;;;;;;0.50;0.40;;;9.30;58.40;;;;;;5047170;28;20307;-79
2023/02/26 10:34:39;;;;;;;0.50;0.40;;;9.60;59.20;;;;;;5054879;28;20285;-80
2023/02/26 10:37:16;;;;;;;0.50;0.40;;;9.60;57.50;;;;;;5056177;28;20235;-79
2023/02/26 10:39:50;;;;;;;0.50;0.40;;;9.90;57.70;;;;;;5042627;28;20198;-79
2023/02/26 10:42:22;;;;;;;0.50;0.40;;;10.10;55.70;;;;;;5060423;28;20179;-80
2023/02/26 10:45:00;;;;;;;0.50;0.45;;;10.20;55.50;;;;;;5060650;28;20202;-80
2023/02/26 10:47:38;;;;;;;0.60;0.50;;;10.00;56.00;;;;;;5053428;28;20194;-80
2023/02/26 10:50:06;;;;;;;0.50;0.40;;;9.40;55.90;;;;;;5049989;28;20225;-80
2023/02/26 10:52:36;;;;;;;0.50;0.40;;;9.00;54.80;;;;;;5050425;28;20225;-78
2023/02/26 10:55:10;;;;;;;0.50;0.40;;;8.50;56.10;;;;;;5040805;28;20198;-79
2023/02/26 10:57:42;;;;;;;0.50;0.40;;;8.20;57.40;;;;;;5048812;28;20221;-80
2023/02/26 11:00:16;;;;;;;0.50;0.40;;;8.10;57.50;;;;;;5033696;28;20221;-79
2023/02/26 11:02:47;;;;;;;0.50;0.40;;;8.40;58.10;;;;;;5057818;28;20305;-79
2023/02/26 11:05:18;;;;;;;0.50;0.40;;;8.50;58.20;;;;;;5038031;28;20294;-79
2023/02/26 11:07:49;;;;;;;0.50;0.40;;;8.60;57.80;;;;;;5046134;28;20227;-79
2023/02/26 11:10:20;;;;;;;0.50;0.40;;;8.00;57.00;;;;;;5038388;28;20251;-79
2023/02/26 11:12:47;;;;;;;0.50;0.40;;;8.50;58.50;;;;;;5038371;28;20659;-79
2023/02/26 11:15:17;;;;;;;0.60;0.60;;;9.40;58.00;;;;;;5044962;28;20210;-80
2023/02/26 11:17:46;;;;;;;0.50;0.40;;;9.70;56.50;;;;;;5045939;28;20215;-78
2023/02/26 11:20:24;;;;;;;0.50;0.40;;;9.90;56.20;;;;;;5051224;28;20282;-79
2023/02/26 11:22:55;;;;;;;0.50;0.40;;;9.80;54.70;;;;;;5050493;28;20201;-79
2023/02/26 11:25:24;;;;;;;4.10;0.82;;;9.30;53.70;;;;;;5048155;28;20191;-79
2023/02/26 11:27:57;;;;;;;0.50;0.40;;;9.30;54.10;;;;;;5057393;28;20646;-78
2023/02/26 11:30:27;;;;;;;0.60;0.50;;;9.80;53.10;;;;;;5052189;28;20286;-79
2023/02/26 11:32:58;;;;;;;0.50;0.50;;;9.90;52.40;;;;;;5057924;28;20199;-78
2023/02/26 11:35:26;;;;;;;0.60;0.60;;;9.90;51.90;;;;;;5048625;28;20269;-78
2023/02/26 11:37:58;;;;;;;0.50;0.50;;;10.00;51.20;;;;;;5048118;28;20302;-79
2023/02/26 11:40:34;;;;;;;0.50;0.40;;;10.70;51.60;;;;;;5049891;28;20481;-81
2023/02/26 11:43:08;;;;;;;0.50;0.40;;;11.10;51.30;;;;;;5057917;28;20444;-79
2023/02/26 11:45:38;;;;;;;0.50;0.40;;;11.20;50.50;;;;;;5046534;28;20450;-80
2023/02/26 11:48:11;;;;;;;0.50;0.40;;;11.00;50.60;;;;;;5042009;28;20669;-79
2023/02/26 11:50:42;;;;;;;0.50;0.40;;;11.00;50.80;;;;;;5045518;28;20468;-80
2023/02/26 11:53:17;;;;;;;0.50;0.40;;;11.20;50.20;;;;;;5056052;28;20975;-79
2023/02/26 11:55:47;;;;;;;0.50;0.40;;;9.80;50.10;;;;;;5047537;28;20844;-79
2023/02/26 11:58:20;;;;;;;2.05;1.90;;;9.80;52.20;;;;;;5038460;28;20582;-80
2023/02/26 12:00:48;;;;;;;0.50;0.40;;;10.50;52.30;;;;;;5044674;28;20211;-78
2023/02/26 12:03:19;;;;;;;0.67;0.53;;;11.10;51.60;;;;;;5052761;28;20517;-79
2023/02/26 12:05:46;;;;;;;0.50;0.40;;;11.20;50.60;;;;;;5052710;28;20447;-79
2023/02/26 12:08:19;;;;;;;1.00;0.90;;;11.40;49.90;;;;;;5056168;28;20445;-80
2023/02/26 12:11:00;;;;;;;0.50;0.40;;;12.00;48.70;;;;;;5046818;28;20991;-78
2023/02/26 12:13:32;;;;;;;0.50;0.40;;;12.20;49.50;;;;;;5043864;28;20442;-80
2023/02/26 12:16:11;;;;;;;0.60;0.60;;;13.50;50.50;;;;;;5042204;28;20828;-80
2023/02/26 12:18:49;;;;;;;0.50;0.40;;;13.50;47.50;;;;;;5043194;28;20484;-78
2023/02/26 12:21:30;;;;;;;0.70;0.43;;;13.40;47.30;;;;;;5035384;28;20466;-82
2023/02/26 12:24:15;;;;;;;0.50;0.40;;;13.30;46.70;;;;;;5052143;28;20519;-78
2023/02/26 12:26:52;;;;;;;0.50;0.40;;;13.10;46.60;;;;;;5039362;28;20430;-81
2023/02/26 12:29:38;;;;;;;0.50;0.40;;;12.80;47.50;;;;;;5028771;28;20446;-80
2023/02/26 12:32:31;;;;;;;0.63;0.63;;;12.20;47.40;;;;;;5053856;28;21019;-80
2023/02/26 12:35:29;;;;;;;0.50;0.40;;;10.90;47.70;;;;;;5053833;28;20942;-80
2023/02/26 12:38:09;;;;;;;0.50;0.50;;;10.60;50.30;;;;;;5029728;28;20565;-79
2023/02/26 12:40:47;;;;;;;0.87;0.40;;;10.40;50.10;;;;;;5047097;28;20462;-79
2023/02/26 12:43:23;;;;;;;0.60;0.60;;;9.90;51.40;;;;;;5043015;28;20796;-79
2023/02/26 12:45:58;;;;;;;1.40;0.75;;;10.10;51.40;;;;;;5048855;28;20197;-79
2023/02/26 12:49:09;;;;;;;0.50;0.40;;;9.50;51.10;;;;;;5037734;28;20195;-80
2023/02/26 12:51:50;;;;;;;0.50;0.40;;;9.80;51.70;;;;;;5030683;28;20236;-78
2023/02/26 12:54:44;;;;;;;0.50;0.40;;;9.60;51.60;;;;;;5042592;28;20205;-78
2023/02/26 12:57:27;;;;;;;0.50;0.40;;;9.70;52.50;;;;;;5056435;28;20278;-78
2023/02/26 13:00:27;;;;;;;0.50;0.40;;;9.30;51.50;;;;;;5053551;28;20241;-78
2023/02/26 13:03:45;;;;;;;0.50;0.40;;;9.40;52.00;;;;;;5050775;28;20647;-80
2023/02/26 13:06:30;;;;;;;0.50;0.40;;;9.80;52.30;;;;;;5013019;28;20256;-78
2023/02/26 13:09:08;;;;;;;0.50;0.40;;;10.50;51.80;;;;;;5004112;28;20518;-79